Time;durP1;ratioP1;P1;durP2;ratioP2;P2;SDS_P1;SDS_P2;PMS_P1;PMS_P2;Temp;Humidity;BMP_temperature;BMP_pressure;BME280_temperature;BME280_humidity;BME280_pressure;Samples;Min_cycle;Max_cycle;Signal;HPM_P1;HPM_P2
2021/05/02 00:03:07;;;;;;;45.70;40.80;;;9.40;99.90;;;;;;10520005;28;20245;-78
2021/05/02 00:08:08;;;;;;;45.37;40.53;;;9.40;99.90;;;;;;10537134;28;20218;-78
2021/05/02 00:13:11;;;;;;;45.33;40.30;;;9.40;99.90;;;;;;10537588;28;20222;-78
2021/05/02 00:18:13;;;;;;;47.10;40.70;;;9.40;99.90;;;;;;10538120;28;20233;-77
2021/05/02 00:23:14;;;;;;;44.83;40.13;;;9.40;99.90;;;;;;10537559;28;20188;-78
2021/05/02 00:28:17;;;;;;;38.10;34.50;;;9.40;99.90;;;;;;10537164;28;20222;-77
2021/05/02 00:33:19;;;;;;;44.17;39.53;;;9.30;99.90;;;;;;10536819;28;20727;-78
2021/05/02 00:38:21;;;;;;;44.17;39.67;;;9.30;99.90;;;;;;10536287;28;20234;-77
2021/05/02 00:43:36;;;;;;;40.33;36.33;;;9.20;99.90;;;;;;10518336;28;20275;-78
2021/05/02 00:48:50;;;;;;;40.57;36.63;;;9.20;99.90;;;;;;10516852;28;20220;-77
2021/05/02 00:54:12;;;;;;;41.33;37.23;;;9.20;99.90;;;;;;10535912;28;20208;-78
2021/05/02 00:59:22;;;;;;;41.43;37.30;;;9.20;99.90;;;;;;10533694;28;20605;-78
2021/05/02 01:04:29;;;;;;;42.77;38.50;;;9.20;99.90;;;;;;10532424;28;20301;-78
2021/05/02 01:09:31;;;;;;;42.07;37.87;;;9.20;99.90;;;;;;10517685;28;20223;-78
2021/05/02 01:14:38;;;;;;;42.47;38.17;;;9.10;99.90;;;;;;10517851;28;20239;-78
2021/05/02 01:19:40;;;;;;;42.83;38.50;;;9.10;99.90;;;;;;10536557;28;20249;-77
2021/05/02 01:24:47;;;;;;;41.33;37.33;;;9.10;99.90;;;;;;10535825;28;20195;-77
2021/05/02 01:29:49;;;;;;;41.87;37.60;;;9.10;99.90;;;;;;10516975;28;20813;-77
2021/05/02 01:34:51;;;;;;;42.67;38.47;;;9.10;99.90;;;;;;10517511;28;20223;-77
2021/05/02 01:39:53;;;;;;;40.70;36.90;;;9.00;99.90;;;;;;10534687;28;20223;-78
2021/05/02 01:44:55;;;;;;;41.80;37.70;;;9.10;99.90;;;;;;10535171;28;20225;-77
2021/05/02 01:50:02;;;;;;;39.17;35.47;;;9.00;99.90;;;;;;10534749;28;20410;-77
2021/05/02 01:55:06;;;;;;;39.73;35.80;;;9.00;99.90;;;;;;10516954;28;20621;-77
2021/05/02 02:00:11;;;;;;;41.30;37.20;;;9.00;99.90;;;;;;10519816;28;20746;-77
2021/05/02 02:05:15;;;;;;;41.70;37.60;;;9.00;99.90;;;;;;10524429;28;20196;-78
2021/05/02 02:10:20;;;;;;;43.07;38.90;;;9.00;99.90;;;;;;10524586;28;20582;-77
2021/05/02 02:15:22;;;;;;;41.30;37.40;;;9.10;99.90;;;;;;10541808;28;20216;-78
2021/05/02 02:20:25;;;;;;;41.07;37.00;;;9.10;99.90;;;;;;10542367;28;20816;-77
2021/05/02 02:25:29;;;;;;;42.30;37.97;;;9.00;99.90;;;;;;10506545;28;20203;-77
2021/05/02 02:30:33;;;;;;;44.57;40.07;;;9.00;99.90;;;;;;10541734;28;20317;-77
2021/05/02 02:35:41;;;;;;;44.40;40.00;;;8.90;99.90;;;;;;10541288;28;20303;-77
2021/05/02 02:40:46;;;;;;;45.77;41.27;;;8.90;99.90;;;;;;10540715;28;20587;-77
2021/05/02 02:45:52;;;;;;;45.53;41.17;;;8.90;99.90;;;;;;10540541;28;20198;-77
2021/05/02 02:50:57;;;;;;;45.53;41.07;;;8.90;99.90;;;;;;10522498;28;20224;-78
2021/05/02 02:56:04;;;;;;;46.40;42.07;;;8.90;99.90;;;;;;10540346;28;20734;-77
2021/05/02 03:01:06;;;;;;;48.77;43.67;;;8.90;99.90;;;;;;10540085;28;20235;-77
2021/05/02 03:06:08;;;;;;;48.70;44.03;;;8.90;99.90;;;;;;10540066;28;20195;-77
2021/05/02 03:11:11;;;;;;;46.23;41.83;;;8.90;99.90;;;;;;10539202;28;20490;-78
2021/05/02 03:16:13;;;;;;;47.47;42.80;;;8.90;99.90;;;;;;10539468;28;20220;-77
2021/05/02 03:21:18;;;;;;;50.13;45.03;;;8.90;99.90;;;;;;10540028;28;20262;-77
2021/05/02 03:26:24;;;;;;;48.80;43.97;;;8.90;99.90;;;;;;10521083;28;20188;-78
2021/05/02 03:31:29;;;;;;;48.77;43.87;;;8.90;99.90;;;;;;10539172;28;20215;-77
2021/05/02 03:36:35;;;;;;;48.60;43.70;;;9.00;99.90;;;;;;10538404;28;20216;-78
2021/05/02 03:41:37;;;;;;;47.40;42.90;;;9.00;99.90;;;;;;10539548;28;20219;-77
2021/05/02 03:46:39;;;;;;;47.90;43.40;;;9.00;99.90;;;;;;10538037;28;20184;-77
2021/05/02 03:51:41;;;;;;;47.27;42.73;;;9.00;99.90;;;;;;10538294;28;20208;-78
2021/05/02 03:56:45;;;;;;;47.03;42.43;;;8.90;99.90;;;;;;10538628;28;20240;-78
2021/05/02 04:01:49;;;;;;;48.67;43.57;;;8.90;99.90;;;;;;10537809;28;20208;-77
2021/05/02 04:06:56;;;;;;;46.90;42.33;;;8.90;99.90;;;;;;10519470;28;20648;-77
2021/05/02 04:11:59;;;;;;;49.13;44.47;;;8.90;99.90;;;;;;10537504;28;20246;-78
2021/05/02 04:17:02;;;;;;;50.40;45.60;;;8.90;99.90;;;;;;10537217;28;20303;-78
2021/05/02 04:22:04;;;;;;;49.40;44.63;;;8.90;99.90;;;;;;10519079;28;20311;-78
2021/05/02 04:27:07;;;;;;;47.60;43.13;;;8.80;99.90;;;;;;10536860;28;20203;-78
2021/05/02 04:32:09;;;;;;;47.03;42.57;;;8.80;99.90;;;;;;10518752;28;20445;-77
2021/05/02 04:37:11;;;;;;;49.30;44.40;;;8.70;99.90;;;;;;10535993;28;20219;-77
2021/05/02 04:42:14;;;;;;;48.37;43.60;;;8.70;99.90;;;;;;10536778;28;20683;-78
2021/05/02 04:47:19;;;;;;;48.37;43.63;;;8.60;99.90;;;;;;10535390;28;20216;-78
2021/05/02 04:52:20;;;;;;;48.13;43.23;;;8.60;99.90;;;;;;10536344;28;20584;-78
2021/05/02 04:57:23;;;;;;;47.90;43.40;;;8.60;99.90;;;;;;10535807;28;20211;-78
2021/05/02 05:02:24;;;;;;;47.77;43.30;;;8.60;99.90;;;;;;10517557;28;20200;-78
2021/05/02 05:07:26;;;;;;;49.60;44.80;;;8.60;99.90;;;;;;10535739;28;20192;-77
2021/05/02 05:12:28;;;;;;;46.57;42.07;;;8.70;99.90;;;;;;10517588;28;20573;-78
2021/05/02 05:17:30;;;;;;;47.87;43.33;;;8.80;99.90;;;;;;10535374;28;20215;-78
2021/05/02 05:22:32;;;;;;;49.03;44.40;;;8.80;99.90;;;;;;10535968;28;20196;-78
2021/05/02 05:27:34;;;;;;;46.83;42.43;;;8.90;99.90;;;;;;10517317;28;20642;-77
2021/05/02 05:32:36;;;;;;;47.33;42.50;;;9.00;99.90;;;;;;10517773;28;20219;-78
2021/05/02 05:37:38;;;;;;;45.47;41.10;;;9.10;99.90;;;;;;10542496;28;20223;-78
2021/05/02 05:42:40;;;;;;;43.97;39.63;;;9.10;99.90;;;;;;10545679;28;20196;-78
2021/05/02 05:47:42;;;;;;;43.20;38.90;;;9.10;99.90;;;;;;10542670;28;20516;-77
2021/05/02 05:52:45;;;;;;;41.47;37.77;;;9.30;99.90;;;;;;10543217;28;20249;-77
2021/05/02 05:57:49;;;;;;;40.90;36.90;;;9.40;99.90;;;;;;10542776;28;20224;-77
2021/05/02 06:02:51;;;;;;;37.63;34.13;;;9.40;99.90;;;;;;10542489;28;20220;-77
2021/05/02 06:07:52;;;;;;;37.87;34.37;;;9.50;99.90;;;;;;10524314;28;20216;-77
2021/05/02 06:12:55;;;;;;;40.43;36.63;;;9.50;99.90;;;;;;10542125;28;20262;-78
2021/05/02 06:17:57;;;;;;;37.07;33.77;;;9.80;99.90;;;;;;10542204;28;20219;-77
2021/05/02 06:22:58;;;;;;;34.50;31.50;;;10.00;99.90;;;;;;10523646;28;20570;-78
2021/05/02 06:28:01;;;;;;;34.70;31.80;;;10.20;99.90;;;;;;10541674;28;20629;-77
2021/05/02 06:33:02;;;;;;;31.20;28.60;;;10.30;99.90;;;;;;10541496;28;20566;-77
2021/05/02 06:38:04;;;;;;;31.17;28.40;;;10.40;99.90;;;;;;10540664;28;20603;-77
2021/05/02 06:43:08;;;;;;;30.87;27.90;;;10.40;99.90;;;;;;10541223;28;20219;-77
2021/05/02 06:48:10;;;;;;;30.70;28.20;;;10.50;99.90;;;;;;10538903;28;20236;-78
2021/05/02 06:53:11;;;;;;;30.77;28.10;;;10.60;99.90;;;;;;10540787;28;20261;-78
2021/05/02 06:58:14;;;;;;;30.87;28.20;;;10.70;99.90;;;;;;10540352;28;20298;-78
2021/05/02 07:03:16;;;;;;;30.70;28.07;;;10.80;99.90;;;;;;10541252;28;20267;-77
2021/05/02 07:08:19;;;;;;;27.70;25.40;;;11.00;99.90;;;;;;10540277;28;20211;-77
2021/05/02 07:13:21;;;;;;;28.37;25.97;;;11.20;99.90;;;;;;10521723;28;20672;-77
2021/05/02 07:18:23;;;;;;;26.17;24.07;;;11.40;99.90;;;;;;10521306;28;20204;-77
2021/05/02 07:23:25;;;;;;;23.70;21.80;;;11.40;99.90;;;;;;10539979;28;20192;-77
2021/05/02 07:28:27;;;;;;;27.07;24.70;;;11.50;99.90;;;;;;10539296;28;20215;-77
2021/05/02 07:33:29;;;;;;;23.70;21.70;;;11.50;99.90;;;;;;10523121;28;20204;-77
2021/05/02 07:38:30;;;;;;;21.77;20.03;;;11.80;99.90;;;;;;10513237;28;20228;-77
2021/05/02 07:43:33;;;;;;;21.57;19.73;;;12.30;99.90;;;;;;10517414;28;20353;-77
2021/05/02 07:48:35;;;;;;;21.23;19.40;;;12.40;99.90;;;;;;10514461;28;20714;-78
2021/05/02 07:53:37;;;;;;;22.53;20.70;;;12.50;99.90;;;;;;10507213;28;20813;-78
2021/05/02 07:58:39;;;;;;;19.03;17.43;;;12.80;99.90;;;;;;10516634;28;20739;-77
2021/05/02 08:03:41;;;;;;;19.80;18.10;;;12.90;99.90;;;;;;10495432;28;20199;-78
2021/05/02 08:08:42;;;;;;;18.63;17.10;;;12.90;99.90;;;;;;10489574;28;20599;-77
2021/05/02 08:13:45;;;;;;;19.60;17.80;;;12.70;99.90;;;;;;10490095;28;20220;-78
2021/05/02 08:18:47;;;;;;;17.37;15.77;;;12.70;99.90;;;;;;10497488;28;20220;-78
2021/05/02 08:23:49;;;;;;;18.10;16.60;;;12.80;99.90;;;;;;10503316;28;20208;-78
2021/05/02 08:28:51;;;;;;;17.50;16.03;;;13.20;99.90;;;;;;10487053;28;20980;-78
2021/05/02 08:33:53;;;;;;;17.07;15.47;;;13.80;99.90;;;;;;10481900;28;20721;-78
2021/05/02 08:38:55;;;;;;;16.80;15.30;;;14.20;99.90;;;;;;10487993;28;20272;-78
2021/05/02 08:43:59;;;;;;;15.77;14.47;;;14.60;99.90;;;;;;10493789;28;20281;-78
2021/05/02 08:49:04;;;;;;;15.67;14.37;;;14.80;98.30;;;;;;10503851;28;20262;-78
2021/05/02 08:54:06;;;;;;;16.37;14.83;;;14.80;97.50;;;;;;10461024;28;20263;-78
2021/05/02 08:59:09;;;;;;;15.70;14.20;;;14.80;97.10;;;;;;10491604;28;20267;-78
2021/05/02 09:04:11;;;;;;;16.30;14.90;;;14.90;96.10;;;;;;10476376;28;20188;-78
2021/05/02 09:09:13;;;;;;;15.67;14.10;;;15.00;95.40;;;;;;10515872;28;20215;-78
2021/05/02 09:14:30;;;;;;;17.03;15.43;;;14.90;96.30;;;;;;10535506;28;20770;-78
2021/05/02 09:19:47;;;;;;;15.40;14.03;;;15.10;94.40;;;;;;10535464;28;20216;-78
2021/05/02 09:25:00;;;;;;;17.40;15.73;;;15.20;92.00;;;;;;10535094;28;20614;-78
2021/05/02 09:30:16;;;;;;;16.87;15.27;;;15.00;92.00;;;;;;10464420;28;20590;-78
2021/05/02 09:35:25;;;;;;;17.93;16.27;;;14.60;93.20;;;;;;10497103;28;20219;-78
2021/05/02 09:40:27;;;;;;;15.43;14.13;;;14.60;93.50;;;;;;10517264;28;20303;-78
2021/05/02 09:45:29;;;;;;;15.97;14.50;;;15.10;92.20;;;;;;10512042;28;20192;-78
2021/05/02 09:50:35;;;;;;;16.50;15.10;;;15.30;88.80;;;;;;10475270;28;20212;-78
2021/05/02 09:55:39;;;;;;;17.90;16.40;;;15.10;89.50;;;;;;10492710;28;20251;-78
2021/05/02 10:00:43;;;;;;;17.00;15.53;;;14.60;90.60;;;;;;10493214;28;20220;-78
2021/05/02 10:05:55;;;;;;;17.47;15.87;;;14.20;91.00;;;;;;10492882;28;20221;-78
2021/05/02 10:10:58;;;;;;;18.70;17.00;;;13.90;92.50;;;;;;10493910;28;20615;-78
2021/05/02 10:16:01;;;;;;;18.80;17.20;;;13.90;94.40;;;;;;10492592;28;20224;-78
2021/05/02 10:21:05;;;;;;;19.53;17.80;;;14.00;93.40;;;;;;10509246;28;20215;-78
2021/05/02 10:26:07;;;;;;;18.10;16.50;;;14.00;93.00;;;;;;10500693;28;20667;-78
2021/05/02 10:31:10;;;;;;;17.90;16.30;;;14.10;92.50;;;;;;10499236;28;20699;-78
2021/05/02 10:36:13;;;;;;;16.50;15.17;;;14.30;91.40;;;;;;10499441;28;20221;-78
2021/05/02 10:41:26;;;;;;;17.63;16.10;;;14.40;91.50;;;;;;10504491;28;20310;-79
2021/05/02 10:46:50;;;;;;;17.00;15.30;;;14.40;90.50;;;;;;10490288;28;20220;-78
2021/05/02 10:51:53;;;;;;;17.03;15.53;;;14.40;89.60;;;;;;10507337;28;20212;-79
2021/05/02 10:56:59;;;;;;;17.57;16.07;;;14.50;90.90;;;;;;10487599;28;20240;-78
2021/05/02 11:02:36;;;;;;;16.70;15.10;;;14.70;87.00;;;;;;10499872;28;20251;-79
2021/05/02 11:07:48;;;;;;;15.87;14.47;;;14.90;84.60;;;;;;10508141;28;20654;-78
2021/05/02 11:12:50;;;;;;;17.27;15.67;;;14.90;83.40;;;;;;10541972;28;20223;-81
2021/05/02 11:17:56;;;;;;;17.80;16.20;;;14.80;86.40;;;;;;10514555;28;20234;-78
2021/05/02 11:22:58;;;;;;;16.83;15.40;;;14.60;85.30;;;;;;10500984;28;20208;-78
2021/05/02 11:28:03;;;;;;;17.73;16.23;;;14.50;86.30;;;;;;10498456;28;20212;-79
2021/05/02 11:33:22;;;;;;;17.20;15.80;;;14.40;86.60;;;;;;10498794;28;20227;-79
2021/05/02 11:38:48;;;;;;;19.03;17.43;;;14.10;84.50;;;;;;10518687;28;20774;-78
2021/05/02 11:43:50;;;;;;;21.90;20.00;;;13.70;90.00;;;;;;10498471;28;20193;-78
2021/05/02 11:48:53;;;;;;;24.40;22.40;;;13.40;91.90;;;;;;10496219;28;20224;-78
2021/05/02 11:53:55;;;;;;;21.80;20.00;;;13.20;94.40;;;;;;10508668;28;20204;-78
2021/05/02 11:59:02;;;;;;;21.37;19.57;;;13.20;95.20;;;;;;10514841;28;20212;-78
2021/05/02 12:04:08;;;;;;;19.80;18.20;;;13.30;94.30;;;;;;10538178;28;20656;-78
2021/05/02 12:09:14;;;;;;;16.77;15.30;;;13.20;95.10;;;;;;10537171;28;20220;-78
2021/05/02 12:14:22;;;;;;;14.10;13.00;;;13.20;93.10;;;;;;10499043;28;20209;-79
2021/05/02 12:19:33;;;;;;;13.07;12.07;;;13.20;93.00;;;;;;10513756;28;20214;-78
2021/05/02 12:24:37;;;;;;;13.87;12.77;;;13.40;92.70;;;;;;10509975;28;20196;-78
2021/05/02 12:29:43;;;;;;;14.17;13.03;;;13.40;92.80;;;;;;10497795;28;20351;-79
2021/05/02 12:34:48;;;;;;;12.33;11.33;;;13.40;91.00;;;;;;10515537;28;20219;-78
2021/05/02 12:39:53;;;;;;;11.70;10.80;;;13.20;91.90;;;;;;10511757;28;20251;-78
2021/05/02 12:44:54;;;;;;;7.77;7.13;;;12.80;94.30;;;;;;10490052;28;20559;-78
2021/05/02 12:50:06;;;;;;;7.80;7.20;;;12.60;94.60;;;;;;10471093;28;20658;-78
2021/05/02 12:55:22;;;;;;;7.90;7.27;;;12.60;95.80;;;;;;10501258;28;20234;-78
2021/05/02 13:00:30;;;;;;;7.27;6.77;;;12.70;94.50;;;;;;10527982;28;20214;-78
2021/05/02 13:05:33;;;;;;;8.07;7.57;;;12.80;94.80;;;;;;10536177;28;20219;-78
2021/05/02 13:10:36;;;;;;;9.07;8.47;;;13.10;94.70;;;;;;10536193;28;20246;-78
2021/05/02 13:15:45;;;;;;;10.23;9.50;;;13.40;93.50;;;;;;10528355;28;20224;-78
2021/05/02 13:20:55;;;;;;;10.40;9.60;;;13.80;93.10;;;;;;10509544;28;20219;-78
2021/05/02 13:26:14;;;;;;;9.97;9.17;;;14.00;92.80;;;;;;10494344;28;20191;-78
2021/05/02 13:31:17;;;;;;;10.10;9.30;;;14.00;91.30;;;;;;10476334;28;20214;-78
2021/05/02 13:36:19;;;;;;;10.07;9.33;;;13.90;91.10;;;;;;10493502;28;20627;-78
2021/05/02 13:41:21;;;;;;;10.87;10.07;;;13.70;91.50;;;;;;10496715;28;20316;-78
2021/05/02 13:46:23;;;;;;;9.73;9.03;;;13.50;93.10;;;;;;10439609;28;20201;-78
2021/05/02 13:51:27;;;;;;;9.70;8.90;;;13.60;91.80;;;;;;10452091;28;20251;-78
2021/05/02 13:56:31;;;;;;;10.23;9.50;;;13.60;92.40;;;;;;10476470;28;20216;-78
2021/05/02 14:01:34;;;;;;;11.87;10.87;;;13.60;93.20;;;;;;10534022;28;20223;-78
2021/05/02 14:06:38;;;;;;;10.90;10.00;;;13.70;90.40;;;;;;10470439;28;20200;-78
2021/05/02 14:11:41;;;;;;;12.63;11.63;;;13.80;89.50;;;;;;10482052;28;20223;-78
2021/05/02 14:16:46;;;;;;;11.97;11.07;;;14.00;90.30;;;;;;10482298;28;20586;-80
2021/05/02 14:21:49;;;;;;;11.57;10.60;;;14.00;90.80;;;;;;10482595;28;20232;-78
2021/05/02 14:26:51;;;;;;;11.50;10.30;;;14.10;89.10;;;;;;10499348;28;20239;-78
2021/05/02 14:31:52;;;;;;;10.60;9.70;;;14.30;90.70;;;;;;10513776;28;20689;-79
2021/05/02 14:36:56;;;;;;;10.30;9.50;;;14.30;88.30;;;;;;10536648;28;20223;-78
2021/05/02 14:41:59;;;;;;;9.13;8.43;;;14.40;90.10;;;;;;10498912;28;20220;-78
2021/05/02 14:47:01;;;;;;;9.47;8.67;;;14.40;90.70;;;;;;10479800;28;20189;-79
2021/05/02 14:52:05;;;;;;;10.23;9.23;;;14.30;87.20;;;;;;10533725;28;20220;-78
2021/05/02 14:57:07;;;;;;;9.20;8.40;;;14.30;88.10;;;;;;10522219;28;20232;-78
2021/05/02 15:02:09;;;;;;;9.50;8.80;;;14.10;88.70;;;;;;10516448;28;20682;-78
2021/05/02 15:07:11;;;;;;;9.20;8.40;;;14.00;88.20;;;;;;10497426;28;20611;-78
2021/05/02 15:12:14;;;;;;;9.80;8.50;;;14.00;85.00;;;;;;10496956;28;20691;-78
2021/05/02 15:17:16;;;;;;;10.20;9.30;;;14.00;91.40;;;;;;10510240;28;20633;-77
2021/05/02 15:22:18;;;;;;;10.27;9.47;;;13.90;92.50;;;;;;10533594;28;20212;-76
2021/05/02 15:27:20;;;;;;;11.20;10.20;;;13.80;90.30;;;;;;10510927;28;20192;-76
2021/05/02 15:32:22;;;;;;;11.20;10.13;;;13.70;90.50;;;;;;10510885;28;20240;-78
2021/05/02 15:42:54;;;;;;;10.60;9.60;;;13.70;91.10;;;;;;10530400;28;21025;-78
2021/05/02 15:47:58;;;;;;;8.93;7.83;;;13.60;90.40;;;;;;10527317;28;20282;-79
2021/05/02 15:52:59;;;;;;;8.87;8.17;;;13.50;89.70;;;;;;10517875;28;20208;-78
2021/05/02 15:58:02;;;;;;;8.27;7.67;;;13.40;90.60;;;;;;10487538;28;20670;-78
2021/05/02 16:03:04;;;;;;;7.23;6.63;;;13.30;90.00;;;;;;10482757;28;20254;-78
2021/05/02 16:08:06;;;;;;;7.43;6.73;;;13.30;90.60;;;;;;10470165;28;20216;-78
2021/05/02 16:13:13;;;;;;;6.90;6.50;;;13.40;90.00;;;;;;10484318;28;20205;-78
2021/05/02 16:18:17;;;;;;;6.73;6.13;;;13.50;84.90;;;;;;10485504;28;20215;-78
2021/05/02 16:23:20;;;;;;;5.90;5.50;;;13.70;87.10;;;;;;10507470;28;20547;-78
2021/05/02 16:28:23;;;;;;;5.40;5.00;;;13.80;84.00;;;;;;10510344;28;20307;-77
2021/05/02 16:33:24;;;;;;;5.67;5.27;;;13.80;85.10;;;;;;10466424;28;20235;-78
2021/05/02 16:38:27;;;;;;;5.80;5.40;;;13.70;82.50;;;;;;10476921;28;20976;-77
2021/05/02 16:43:32;;;;;;;8.70;6.47;;;13.50;86.60;;;;;;10482149;28;20242;-77
2021/05/02 16:48:34;;;;;;;5.97;5.57;;;13.40;85.90;;;;;;10485430;28;20299;-78
2021/05/02 16:53:35;;;;;;;6.50;6.10;;;13.30;85.40;;;;;;10458737;28;20653;-77
2021/05/02 16:58:41;;;;;;;6.40;5.80;;;13.30;89.50;;;;;;10452503;28;20217;-78
2021/05/02 17:03:43;;;;;;;5.77;5.07;;;13.20;80.60;;;;;;10453588;28;20201;-77
2021/05/02 17:08:44;;;;;;;4.50;4.10;;;13.20;86.20;;;;;;10453083;28;20736;-77
2021/05/02 17:13:49;;;;;;;4.63;4.27;;;13.20;83.70;;;;;;10452526;28;20292;-77
2021/05/02 17:18:51;;;;;;;4.43;4.13;;;13.20;76.50;;;;;;10464166;28;20350;-78
2021/05/02 17:24:01;;;;;;;6.17;4.10;;;13.20;80.60;;;;;;10486776;28;20202;-78
2021/05/02 17:29:05;;;;;;;4.57;3.90;;;13.20;82.00;;;;;;10492613;28;20205;-78
2021/05/02 17:34:11;;;;;;;4.80;4.13;;;13.20;84.20;;;;;;10462239;28;20201;-78
2021/05/02 17:39:13;;;;;;;5.07;4.10;;;13.10;78.10;;;;;;10450048;28;20244;-77
2021/05/02 17:44:16;;;;;;;4.20;3.90;;;13.10;82.70;;;;;;10432889;28;20565;-78
2021/05/02 17:49:18;;;;;;;4.30;4.00;;;13.00;80.70;;;;;;10449632;28;20236;-78
2021/05/02 17:54:21;;;;;;;5.73;5.03;;;13.00;85.80;;;;;;10451974;28;20699;-77
2021/05/02 17:59:24;;;;;;;4.17;3.83;;;12.90;84.30;;;;;;10453416;28;20229;-78
2021/05/02 18:04:28;;;;;;;5.13;4.63;;;12.80;84.70;;;;;;10469930;28;20234;-77
2021/05/02 18:09:30;;;;;;;3.60;3.40;;;12.80;85.00;;;;;;10477502;28;20216;-77
2021/05/02 18:14:32;;;;;;;3.97;3.67;;;12.80;84.40;;;;;;10467380;28;20291;-77
2021/05/02 18:19:34;;;;;;;4.30;3.90;;;12.70;81.10;;;;;;10431814;28;20642;-78
2021/05/02 18:24:36;;;;;;;4.37;3.97;;;12.70;82.20;;;;;;10422718;28;20551;-77
2021/05/02 18:29:38;;;;;;;3.93;3.67;;;12.60;79.50;;;;;;10426295;28;20221;-78
2021/05/02 18:34:41;;;;;;;3.60;3.40;;;12.50;80.80;;;;;;10441102;28;20705;-77
2021/05/02 18:39:43;;;;;;;4.47;3.90;;;12.50;76.90;;;;;;10447544;28;20218;-77
2021/05/02 18:44:47;;;;;;;3.90;3.67;;;12.50;77.30;;;;;;10459574;28;20192;-77
2021/05/02 18:49:51;;;;;;;3.50;3.30;;;12.40;80.40;;;;;;10474178;28;20221;-77
2021/05/02 18:54:53;;;;;;;5.37;3.57;;;12.40;79.60;;;;;;10446275;28;20537;-77
2021/05/02 18:59:56;;;;;;;4.07;3.77;;;12.30;79.00;;;;;;10420026;28;20308;-78
2021/05/02 19:04:57;;;;;;;4.23;3.83;;;12.20;76.90;;;;;;10445040;28;20308;-78
2021/05/02 19:09:59;;;;;;;10.20;4.63;;;12.10;77.90;;;;;;10453366;28;20779;-78
2021/05/02 19:15:02;;;;;;;3.50;3.30;;;12.10;82.70;;;;;;10487617;28;20276;-78
2021/05/02 19:20:06;;;;;;;4.70;4.30;;;12.00;84.10;;;;;;10488929;28;20224;-77
2021/05/02 19:25:11;;;;;;;4.30;4.00;;;12.00;83.70;;;;;;10489354;28;20203;-78
2021/05/02 19:30:15;;;;;;;4.30;4.00;;;12.00;85.50;;;;;;10488907;28;20220;-77
2021/05/02 19:35:19;;;;;;;4.63;4.27;;;12.00;84.40;;;;;;10482894;28;20193;-78
2021/05/02 19:40:22;;;;;;;4.40;3.90;;;12.00;81.40;;;;;;10448171;28;20225;-78
2021/05/02 19:45:27;;;;;;;7.10;4.20;;;12.00;82.10;;;;;;10474605;28;20261;-78
2021/05/02 19:50:29;;;;;;;4.67;4.23;;;12.00;78.70;;;;;;10481454;28;20750;-78
2021/05/02 19:55:31;;;;;;;4.40;4.10;;;12.00;80.40;;;;;;10478641;28;20279;-77
2021/05/02 20:00:34;;;;;;;4.50;4.10;;;12.00;82.20;;;;;;10416192;28;20257;-77
2021/05/02 20:05:39;;;;;;;4.50;4.17;;;12.00;86.00;;;;;;10407705;28;20209;-77
2021/05/02 20:10:40;;;;;;;5.03;4.63;;;11.90;78.80;;;;;;10450296;28;20691;-77
2021/05/02 20:15:43;;;;;;;4.50;4.17;;;11.90;78.90;;;;;;10459795;28;20688;-77
2021/05/02 20:20:45;;;;;;;4.30;4.00;;;11.80;82.00;;;;;;10450092;28;20240;-77
2021/05/02 20:25:46;;;;;;;4.70;4.37;;;11.70;80.10;;;;;;10453758;28;20201;-78
2021/05/02 20:30:49;;;;;;;4.97;4.47;;;11.60;80.30;;;;;;10459281;28;20217;-77
2021/05/02 20:35:52;;;;;;;4.23;3.93;;;11.40;83.00;;;;;;10464063;28;20201;-77
2021/05/02 20:40:54;;;;;;;4.77;4.20;;;11.20;84.90;;;;;;10457920;28;20221;-78
2021/05/02 20:46:37;;;;;;;4.10;3.80;;;11.00;85.60;;;;;;10456899;28;20252;-77
2021/05/02 20:51:40;;;;;;;4.47;4.17;;;10.80;86.00;;;;;;10313210;28;20227;-77
2021/05/02 20:56:42;;;;;;;4.20;3.90;;;10.60;85.00;;;;;;10418485;28;20277;-77
2021/05/02 21:01:44;;;;;;;4.57;4.20;;;10.60;86.10;;;;;;10417564;28;20291;-77
2021/05/02 21:06:47;;;;;;;5.27;4.97;;;10.60;86.70;;;;;;10415878;28;20198;-78
2021/05/02 21:11:48;;;;;;;4.93;4.63;;;10.60;86.40;;;;;;10417797;28;20750;-77
2021/05/02 21:16:50;;;;;;;4.80;4.40;;;10.60;86.30;;;;;;10415127;28;20186;-77
2021/05/02 21:21:53;;;;;;;4.60;4.30;;;10.70;86.70;;;;;;10416736;28;20305;-78
2021/05/02 21:26:54;;;;;;;5.50;5.10;;;10.60;85.10;;;;;;10416647;28;20277;-78
2021/05/02 21:31:58;;;;;;;4.97;4.57;;;10.70;84.60;;;;;;10415639;28;20629;-77
2021/05/02 21:37:01;;;;;;;4.97;4.57;;;10.70;86.30;;;;;;10415828;28;20186;-77
2021/05/02 21:42:03;;;;;;;6.03;4.83;;;10.70;86.70;;;;;;10427577;23;20230;-80
2021/05/02 21:47:05;;;;;;;5.13;4.73;;;10.50;88.80;;;;;;10422201;28;20198;-79
2021/05/02 21:52:09;;;;;;;4.53;4.20;;;10.50;87.70;;;;;;10401510;28;20210;-80
2021/05/02 21:57:11;;;;;;;4.20;3.90;;;10.40;88.00;;;;;;10400193;28;20537;-79
2021/05/02 22:02:12;;;;;;;5.27;4.73;;;10.40;87.10;;;;;;10419097;28;20320;-79
2021/05/02 22:07:15;;;;;;;5.83;5.33;;;10.20;87.60;;;;;;10418074;28;20269;-80
2021/05/02 22:12:17;;;;;;;5.23;4.73;;;10.20;88.50;;;;;;10401192;28;20254;-79
2021/05/02 22:17:19;;;;;;;5.30;4.90;;;10.20;89.30;;;;;;10399727;28;20233;-79
2021/05/02 22:22:21;;;;;;;5.97;5.57;;;10.20;87.30;;;;;;10385321;28;20226;-80
2021/05/02 22:27:23;;;;;;;5.07;4.67;;;10.30;85.50;;;;;;10418106;28;20198;-80
2021/05/02 22:32:24;;;;;;;5.27;4.97;;;10.30;86.80;;;;;;10364691;28;20223;-79
2021/05/02 22:37:27;;;;;;;4.93;4.43;;;10.40;86.80;;;;;;10377117;28;20274;-80
2021/05/02 22:42:52;;;;;;;4.67;4.37;;;10.40;85.40;;;;;;10400419;28;20701;-79
2021/05/02 22:48:02;;;;;;;5.40;4.90;;;10.50;86.40;;;;;;10398719;28;20369;-80
2021/05/02 22:53:10;;;;;;;5.23;4.20;;;10.50;87.00;;;;;;10414417;28;20188;-79
2021/05/02 22:58:12;;;;;;;3.53;3.33;;;10.40;88.10;;;;;;10414390;28;20198;-79
2021/05/02 23:03:17;;;;;;;4.00;3.70;;;10.30;88.90;;;;;;10396587;28;20201;-79
2021/05/02 23:08:23;;;;;;;4.67;4.20;;;10.20;89.90;;;;;;10397656;28;20228;-79
2021/05/02 23:13:27;;;;;;;4.43;4.00;;;10.10;88.50;;;;;;10395909;28;20248;-79
2021/05/02 23:18:29;;;;;;;4.60;4.30;;;10.00;88.60;;;;;;10378678;28;20764;-79
2021/05/02 23:23:32;;;;;;;4.63;4.33;;;9.90;89.80;;;;;;10397407;28;20216;-79
2021/05/02 23:28:33;;;;;;;4.70;4.30;;;9.90;90.00;;;;;;10414370;28;20212;-79
2021/05/02 23:33:35;;;;;;;5.40;4.90;;;10.00;90.00;;;;;;10413938;28;20204;-79
2021/05/02 23:38:38;;;;;;;5.17;4.77;;;10.00;87.00;;;;;;10412626;28;20252;-79
2021/05/02 23:43:40;;;;;;;5.77;5.27;;;10.00;86.90;;;;;;10382618;28;20252;-79
2021/05/02 23:48:41;;;;;;;5.97;5.07;;;10.10;90.10;;;;;;10374252;28;20198;-79
2021/05/02 23:53:44;;;;;;;5.70;5.20;;;10.20;90.60;;;;;;10372877;28;20240;-79
2021/05/02 23:58:45;;;;;;;6.10;5.60;;;10.20;90.40;;;;;;10354897;28;20222;-79
